Aircraft
UPR1004 PR-AEA A330
SVMI
Simón Bolívar International Airport
TNCM
Princess Juliana International Airport
Pilot:: Jair
Aircraft:: A330-300 (RR)
Alternate: SVMI
Network: ivao
FLIGHT DETAILS
Distance: 501nm Duration 01h 16m
Cruise Speed: Flight Level: 34000
Validation: Validated Type Charter
Flight Fuel
ZFW: 119991
Block Fuel/Initial FOB: 49280
Flight Fuel: 8652
Cargo
Passengers: 280
Cargo: 21100
ROUTE
ROUTE: svmi dct tncm
REMARKS:
DATE
Date: 26-07-31
Departure Time: 2040
Cargo: 21100
FLIGHT DETAILS
Crashed: No
Validator Comments: Validado por Rafael
Flight Rating: 99
LANDING ANALYSIS
Landing wind: 110º/14 kt
Landing heading: 100º
Landing VS:: -255 ft/min
Landing IAS:: 137 kt
Landing Force G: 1.1 G
Landing Bank: 0
Landing Pitch: -3
Landing Flaps: 100
Navigation Lights: ON
Landing Lights: ON
Beacon Lights: ON
Strobe Lights: ON
viserfly

ALTITUDE CHART

viserfly

MAIN EVENTS

DATE EVENT IAS ALTITUDE
2026-07-31 20:39:13 FLYacars version 1.3.5 10 224
2026-07-31 20:39:13 Aircraft boarding in progress 11 224
2026-07-31 20:39:35 Aircraft taxiing to runway 15 224
2026-07-31 20:40:06 Detected Take-off roll, HDG 97, IAS 166kt, GS 164kt, G-force 1.0g, Pitch -2.7deg, Bank 0.1deg, Wind 090/09kt, Temp 30°C 166 207
2026-07-31 20:40:06 Airborne 166 207
2026-07-31 20:40:16 Taxi Lights OFF 198 456
2026-07-31 20:40:19 FLAPS 0% 198kt, ALT 654ft 198 654
2026-07-31 20:40:27 Gear UP, IAS 191kt, GS 193kt, ALT 1104ft AGL 191 1262
2026-07-31 20:43:51 Landing lights ON above 10000fts 262 11002
2026-07-31 20:57:23 Aircraft on Top Of Climb at 35289ft, IAS 276kt, GS 491kt, HDG 38deg, TAT -41deg, WIND 239/22kt 276 35289
2026-07-31 21:23:40 Aircraft on Top Of Descent at 33499ft, IAS 289kt, GS 499kt, HDG 41deg, TAT -37deg, WIND 202/22kt 289 33499
2026-07-31 21:25:01 Simulator Paused 290 32145
2026-07-31 21:25:22 Simulator Un-Paused 289 32145
2026-07-31 21:50:28 FLAPS 25% 210kt, ALT 7148ft 210 7148
2026-07-31 21:51:32 FLAPS 0% 190kt, ALT 5837ft 190 5837
2026-07-31 21:51:45 Gear DOWN, IAS 194kt, GS 212kt, ALT 5416ft AGL 194 5418
2026-07-31 21:51:54 Taxi Lights ON 194 5210
2026-07-31 21:51:56 FLAPS 25% 195kt, ALT 5180ft 195 5180
2026-07-31 21:52:27 FLAPS 50% 168kt, ALT 5046ft 168 5046
2026-07-31 21:52:28 FLAPS 100% 168kt, ALT 5038ft 168 5038
2026-07-31 21:56:27 Landed at destination with a landing rate of -255fpm, G-force 1.1g, Pitch -3.3deg, Bank 0.1deg, HDG 100deg, IAS 137kt, GS 128kt, Wind 110/14kt, Temp 29°C 137 26
2026-07-31 21:56:46 FLAPS 75% 65 24
2026-07-31 21:56:47 FLAPS 25% 62 23
2026-07-31 21:56:47 FLAPS 0% 61 23
2026-07-31 21:56:56 Aircraft taxiing to apron 34 23
2026-07-31 22:00:58 Beacon Lights OFF 0 25
2026-07-31 22:01:00 Strobe Lights OFF 0 25
2026-07-31 22:01:03 Taxi Lights OFF 0 25
2026-07-31 22:01:08 Aircraft at gate/stand, ground services are moving into position, disembarkation has begun. Remaining FOB 40628kg FLYacars v1.3.5 0 25
viserfly

ACARS DATA

DATE IAS GS ALTITUDE FUEL CONSUMED OAT FLIGHT STATUS
2026-07-31 20:39:43 45 38 222 38 30 TAXI TO RUNWAY
2026-07-31 20:40:13 193 190 343 177 30 TAKEOFF
2026-07-31 20:40:43 204 214 2022 304 25 INITIAL CLIMB
2026-07-31 20:41:13 242 264 2847 418 28 CLIMB
2026-07-31 20:41:43 249 271 4138 531 22 CLIMB
2026-07-31 20:42:13 249 279 5770 643 17 CLIMB
2026-07-31 20:42:43 250 287 7431 755 14 CLIMB
2026-07-31 20:43:13 249 293 9185 865 11 CLIMB
2026-07-31 20:43:43 253 305 10811 975 8 CLIMB
2026-07-31 20:44:13 284 343 11537 1083 7 CLIMB
2026-07-31 20:44:43 289 355 12900 1192 5 CLIMB
2026-07-31 20:45:13 289 363 14340 1296 2 CLIMB
2026-07-31 20:45:43 289 370 15711 1398 0 CLIMB
2026-07-31 20:46:13 289 378 17031 1498 -1 CLIMB
2026-07-31 20:46:43 289 385 18282 1597 -3 CLIMB
2026-07-31 20:47:13 290 394 19416 1695 -5 CLIMB
2026-07-31 20:47:43 290 400 20537 1786 -7 CLIMB
2026-07-31 20:48:13 289 407 21608 1877 -9 CLIMB
2026-07-31 20:48:43 289 413 22610 1967 -11 CLIMB
2026-07-31 20:49:13 289 420 23568 2057 -13 CLIMB
2026-07-31 20:49:43 289 426 24467 2143 -15 CLIMB
2026-07-31 20:50:13 290 433 25322 2228 -17 CLIMB
2026-07-31 20:50:43 289 438 26204 2311 -19 CLIMB
2026-07-31 20:51:13 290 444 26996 2394 -21 CLIMB
2026-07-31 20:51:43 291 450 27774 2474 -22 CLIMB
2026-07-31 20:52:13 290 455 28554 2553 -24 CLIMB
2026-07-31 20:52:43 290 460 29277 2632 -26 CLIMB
2026-07-31 20:53:13 288 467 29933 2710 -28 CLIMB
2026-07-31 20:53:43 290 473 30570 2788 -29 CLIMB
2026-07-31 20:54:13 291 479 31165 2864 -31 CLIMB
2026-07-31 20:54:43 291 483 31813 2938 -32 CLIMB
2026-07-31 20:55:13 290 487 32443 3012 -34 CLIMB
2026-07-31 20:55:43 289 492 33031 3084 -36 CLIMB
2026-07-31 20:56:13 289 495 33637 3154 -37 CLIMB
2026-07-31 20:56:43 282 493 34470 3225 -39 CLIMB
2026-07-31 20:57:13 278 493 35188 3293 -41 CLIMB
2026-07-31 20:57:43 266 475 35323 3332 -41 ENROUTE
2026-07-31 20:58:13 261 468 35320 3378 -41 ENROUTE
2026-07-31 20:58:43 262 469 35311 3430 -41 ENROUTE
2026-07-31 20:59:13 262 470 35311 3482 -41 ENROUTE
2026-07-31 20:59:43 262 470 35311 3535 -41 ENROUTE
2026-07-31 21:00:13 262 470 35314 3587 -41 ENROUTE
2026-07-31 21:00:43 262 470 35314 3640 -41 ENROUTE
2026-07-31 21:01:13 261 471 35307 3693 -41 ENROUTE
2026-07-31 21:01:43 262 471 35311 3746 -41 ENROUTE
2026-07-31 21:02:13 262 471 35311 3798 -41 ENROUTE
2026-07-31 21:02:43 262 471 35311 3849 -41 ENROUTE
2026-07-31 21:03:13 262 471 35311 3902 -41 ENROUTE
2026-07-31 21:03:43 261 471 35307 3954 -41 ENROUTE
2026-07-31 21:04:13 262 472 35303 4006 -41 ENROUTE
2026-07-31 21:04:43 262 472 35303 4059 -41 ENROUTE
2026-07-31 21:05:13 262 472 35303 4109 -41 ENROUTE
2026-07-31 21:05:43 262 472 35303 4161 -41 ENROUTE
2026-07-31 21:06:13 262 472 35303 4213 -41 ENROUTE
2026-07-31 21:06:43 262 472 35306 4265 -41 ENROUTE
2026-07-31 21:07:13 262 472 35307 4317 -41 ENROUTE
2026-07-31 21:07:43 262 472 35307 4369 -41 ENROUTE
2026-07-31 21:08:13 262 472 35310 4421 -41 ENROUTE
2026-07-31 21:08:43 262 472 35311 4473 -41 ENROUTE
2026-07-31 21:09:13 261 473 35304 4525 -41 ENROUTE
2026-07-31 21:09:43 262 473 35303 4578 -41 ENROUTE
2026-07-31 21:10:13 262 473 35304 4630 -41 ENROUTE
2026-07-31 21:10:43 262 473 35303 4682 -41 ENROUTE
2026-07-31 21:11:13 262 473 35306 4735 -41 ENROUTE
2026-07-31 21:11:43 262 473 35299 4787 -42 ENROUTE
2026-07-31 21:12:13 261 473 35300 4838 -41 ENROUTE
2026-07-31 21:12:43 262 474 35299 4891 -41 ENROUTE
2026-07-31 21:13:13 262 474 35299 4943 -41 ENROUTE
2026-07-31 21:13:43 262 474 35299 4995 -41 ENROUTE
2026-07-31 21:14:13 262 474 35297 5047 -42 ENROUTE
2026-07-31 21:14:43 262 474 35297 5098 -42 ENROUTE
2026-07-31 21:15:13 262 474 35296 5150 -42 ENROUTE
2026-07-31 21:15:43 262 474 35296 5202 -42 ENROUTE
2026-07-31 21:16:13 262 474 35297 5254 -42 ENROUTE
2026-07-31 21:16:43 262 474 35297 5306 -42 ENROUTE
2026-07-31 21:17:13 263 474 35295 5358 -41 ENROUTE
2026-07-31 21:17:43 262 473 35296 5409 -41 ENROUTE
2026-07-31 21:18:13 262 473 35297 5461 -41 ENROUTE
2026-07-31 21:18:43 262 473 35297 5513 -41 ENROUTE
2026-07-31 21:19:13 262 473 35297 5565 -41 ENROUTE
2026-07-31 21:19:43 261 473 35297 5617 -41 ENROUTE
2026-07-31 21:20:13 262 474 35296 5670 -41 ENROUTE
2026-07-31 21:20:43 262 474 35296 5722 -41 ENROUTE
2026-07-31 21:21:13 262 474 35297 5774 -41 ENROUTE
2026-07-31 21:21:43 262 474 35297 5825 -41 ENROUTE
2026-07-31 21:22:13 262 474 34969 5872 -41 DESCENT
2026-07-31 21:22:43 275 489 34462 5925 -40 DESCENT
2026-07-31 21:23:13 286 500 33944 5982 -38 DESCENT
2026-07-31 21:23:43 289 499 33444 6028 -37 DESCENT
2026-07-31 21:24:13 290 497 32939 6076 -36 DESCENT
2026-07-31 21:24:43 291 492 32441 6122 -36 DESCENT
2026-07-31 21:25:13 290 488 32145 6148 -35 DESCENT
2026-07-31 21:25:43 290 485 31785 6182 -34 DESCENT
2026-07-31 21:26:13 291 480 31285 6230 -33 DESCENT
2026-07-31 21:26:43 291 473 30786 6276 -32 DESCENT
2026-07-31 21:27:13 291 469 30289 6324 -30 DESCENT
2026-07-31 21:27:43 293 464 29789 6374 -29 DESCENT
2026-07-31 21:28:13 290 457 29289 6421 -28 DESCENT
2026-07-31 21:28:43 290 453 28791 6472 -27 DESCENT
2026-07-31 21:29:13 290 449 28293 6524 -25 DESCENT
2026-07-31 21:29:43 290 446 27793 6575 -24 DESCENT
2026-07-31 21:30:13 290 443 27293 6629 -23 DESCENT
2026-07-31 21:30:43 290 439 26793 6679 -21 DESCENT
2026-07-31 21:31:13 290 435 26295 6733 -20 DESCENT
2026-07-31 21:31:43 290 432 25794 6788 -19 DESCENT
2026-07-31 21:32:13 290 428 25295 6842 -18 DESCENT
2026-07-31 21:32:43 290 425 24795 6896 -16 DESCENT
2026-07-31 21:33:13 291 421 24295 6951 -15 DESCENT
2026-07-31 21:33:43 290 417 23796 7005 -14 DESCENT
2026-07-31 21:34:13 290 414 23298 7058 -13 DESCENT
2026-07-31 21:34:43 290 410 22799 7113 -12 DESCENT
2026-07-31 21:35:13 290 407 22300 7169 -11 DESCENT
2026-07-31 21:35:43 291 403 21801 7223 -10 DESCENT
2026-07-31 21:36:13 290 399 21302 7277 -9 DESCENT
2026-07-31 21:36:43 290 396 20803 7333 -8 DESCENT
2026-07-31 21:37:13 289 393 20304 7390 -7 DESCENT
2026-07-31 21:37:43 277 375 19816 7408 -6 DESCENT
2026-07-31 21:38:13 265 356 19331 7417 -5 DESCENT
2026-07-31 21:38:43 254 340 18842 7426 -4 DESCENT
2026-07-31 21:39:13 246 327 18352 7436 -3 DESCENT
2026-07-31 21:39:43 245 323 17858 7469 -3 DESCENT
2026-07-31 21:40:13 246 321 17359 7504 -2 DESCENT
2026-07-31 21:40:43 245 319 16860 7540 -1 DESCENT
2026-07-31 21:41:13 245 318 16361 7575 0 DESCENT
2026-07-31 21:41:43 245 316 15863 7610 0 DESCENT
2026-07-31 21:42:13 245 314 15365 7644 1 DESCENT
2026-07-31 21:42:43 245 313 14866 7680 2 DESCENT
2026-07-31 21:43:13 245 312 14367 7717 2 DESCENT
2026-07-31 21:43:43 246 310 13869 7752 3 DESCENT
2026-07-31 21:44:13 246 308 13370 7787 4 DESCENT
2026-07-31 21:44:43 245 306 12872 7822 5 DESCENT
2026-07-31 21:45:13 245 304 12375 7856 6 DESCENT
2026-07-31 21:45:43 245 302 11875 7892 7 DESCENT
2026-07-31 21:46:13 245 300 11377 7927 8 DESCENT
2026-07-31 21:46:43 245 298 10879 7963 8 DESCENT
2026-07-31 21:47:13 246 297 10381 7999 9 DESCENT
2026-07-31 21:47:43 246 295 9883 8033 10 DESCENT
2026-07-31 21:48:13 244 290 9383 8064 11 DESCENT
2026-07-31 21:48:43 237 278 8889 8073 12 DESCENT
2026-07-31 21:49:13 231 268 8395 8083 13 DESCENT
2026-07-31 21:49:43 226 260 7902 8094 13 DESCENT
2026-07-31 21:50:13 220 250 7399 8104 14 DESCENT
2026-07-31 21:50:43 198 223 6941 8114 15 DESCENT
2026-07-31 21:51:13 186 206 6395 8125 16 DESCENT
2026-07-31 21:51:43 194 212 5462 8135 17 DESCENT
2026-07-31 21:52:13 174 191 5170 8173 17 ENROUTE
2026-07-31 21:52:43 161 173 4779 8204 18 DESCENT
2026-07-31 21:53:13 152 161 4051 8215 19 DESCENT
2026-07-31 21:53:43 154 157 3217 8226 21 DESCENT
2026-07-31 21:54:13 155 146 2351 8236 22 APPROACH
2026-07-31 21:54:43 149 136 1623 8248 23 APPROACH
2026-07-31 21:55:13 141 126 905 8259 26 ON FINAL
2026-07-31 21:55:43 137 130 524 8307 28 ON FINAL
2026-07-31 21:56:13 139 132 109 8366 29 ON FINAL
2026-07-31 21:56:43 92 81 25 8416 29 ON FINAL
2026-07-31 21:57:13 30 21 23 8435 29 TAXI TO APRON
2026-07-31 21:57:43 15 2 24 8448 29 TAXI TO APRON
2026-07-31 21:58:13 8 20 23 8487 29 TAXI TO APRON
2026-07-31 21:58:43 22 35 24 8516 29 TAXI TO APRON
2026-07-31 21:59:13 18 32 25 8529 29 TAXI TO APRON
2026-07-31 21:59:43 1 14 24 8542 29 TAXI TO APRON
2026-07-31 22:00:13 13 15 25 8583 29 TAXI TO APRON
2026-07-31 22:00:43 0 0 25 8625 29 TAXI TO APRON
  • Join our VA!

    It has been 11 years of great learning, friendships, and stories.

  • Sign up now!